Time;durP1;ratioP1;P1;durP2;ratioP2;P2;SDS_P1;SDS_P2;PMS_P1;PMS_P2;Temp;Humidity;BMP_temperature;BMP_pressure;BME280_temperature;BME280_humidity;BME280_pressure;Samples;Min_cycle;Max_cycle;Signal;HPM_P1;HPM_P2
2022/03/31 00:00:01;;;;;;;;;39.75;32.75;;;;;15.95;45.86;99727.00;4962222;28;61838;-77
2022/03/31 00:02:26;;;;;;;;;41.00;34.75;;;;;15.94;46.14;99730.53;4961703;28;61826;-77
2022/03/31 00:05:00;;;;;;;;;44.25;34.75;;;;;15.86;45.83;99721.66;4962149;28;62229;-77
2022/03/31 00:07:26;;;;;;;;;31.75;27.50;;;;;15.83;45.91;99726.94;4962168;28;61822;-77
2022/03/31 00:09:51;;;;;;;;;42.75;35.75;;;;;15.81;46.06;99720.75;4962363;28;61852;-77
2022/03/31 00:12:17;;;;;;;;;45.25;33.50;;;;;15.83;45.67;99716.38;4961115;28;61770;-77
2022/03/31 00:14:43;;;;;;;;;53.00;38.25;;;;;15.84;45.88;99717.25;4961785;28;62112;-77
2022/03/31 00:17:10;;;;;;;;;38.00;35.00;;;;;15.86;45.94;99716.38;4961164;28;61853;-77
2022/03/31 00:19:35;;;;;;;;;40.50;34.50;;;;;15.86;46.37;99719.00;4961653;28;61854;-77
2022/03/31 00:22:01;;;;;;;;;35.25;30.00;;;;;15.85;46.18;99724.28;4962812;28;63880;-77
2022/03/31 00:24:26;;;;;;;;;43.25;33.75;;;;;15.86;46.27;99713.72;4965428;28;61913;-77
2022/03/31 00:26:52;;;;;;;;;39.50;35.75;;;;;15.81;46.13;99718.13;4965066;28;62138;-77
2022/03/31 00:29:17;;;;;;;;;45.50;34.75;;;;;15.73;46.41;99720.69;4965478;28;61959;-76
2022/03/31 00:31:43;;;;;;;;;37.25;31.75;;;;;15.78;46.70;99717.19;4964598;28;61999;-77
2022/03/31 00:34:08;;;;;;;;;35.25;32.00;;;;;15.82;46.17;99708.41;4963920;28;61935;-77
2022/03/31 00:36:34;;;;;;;;;46.75;32.25;;;;;15.76;46.03;99709.25;4980329;28;62089;-77
2022/03/31 00:41:44;;;;;;;;;44.00;33.25;;;;;15.50;46.51;99706.41;4971726;28;62542;-78
2022/03/31 00:44:09;;;;;;;;;47.00;38.25;;;;;15.48;46.91;99706.38;4964612;28;62043;-77
2022/03/31 00:46:35;;;;;;;;;46.25;36.25;;;;;15.48;47.10;99700.22;4963941;28;62100;-77
2022/03/31 00:49:01;;;;;;;;;43.50;34.00;;;;;15.44;47.64;99704.59;4965379;28;62058;-77
2022/03/31 00:51:29;;;;;;;;;47.50;39.50;;;;;15.43;47.36;99694.91;4964564;28;61892;-77
2022/03/31 00:53:56;;;;;;;;;41.00;34.75;;;;;15.44;47.25;99701.06;4964985;28;62028;-77
2022/03/31 00:56:23;;;;;;;;;36.75;29.25;;;;;15.36;47.31;99702.78;4965045;28;62079;-77
2022/03/31 00:58:50;;;;;;;;;45.25;37.50;;;;;15.31;47.45;99697.44;4964967;28;61950;-77
2022/03/31 01:01:15;;;;;;;;;49.00;40.50;;;;;15.26;47.78;99696.53;4964356;28;61938;-77
2022/03/31 01:03:41;;;;;;;;;44.25;34.00;;;;;15.23;47.86;99689.47;4964816;28;61994;-77
2022/03/31 01:06:06;;;;;;;;;54.25;39.50;;;;;15.18;48.04;99679.72;4964709;28;61976;-77
2022/03/31 01:08:32;;;;;;;;;53.25;36.75;;;;;15.23;47.83;99694.75;4979857;28;62006;-77
2022/03/31 01:10:58;;;;;;;;;40.00;35.00;;;;;15.25;47.89;99689.47;4964103;28;62749;-77
2022/03/31 01:13:23;;;;;;;;;44.50;35.25;;;;;15.21;47.99;99683.28;4964149;28;61939;-77
2022/03/31 01:15:49;;;;;;;;;50.50;37.75;;;;;15.09;48.45;99684.06;4979745;28;62194;-77
2022/03/31 01:18:14;;;;;;;;;48.00;40.25;;;;;15.08;48.66;99692.88;4964774;28;61825;-77
2022/03/31 01:20:40;;;;;;;;;41.50;35.75;;;;;15.03;48.50;99689.28;4964126;28;61794;-77
2022/03/31 01:23:13;;;;;;;;;52.75;40.25;;;;;14.99;48.88;99684.84;4964122;28;61937;-77
2022/03/31 01:25:39;;;;;;;;;48.25;37.00;;;;;14.90;49.20;99683.00;4964977;28;62082;-77
2022/03/31 01:28:05;;;;;;;;;50.75;38.75;;;;;14.90;49.14;99685.66;4964211;28;62008;-77
2022/03/31 01:30:31;;;;;;;;;46.00;34.75;;;;;14.88;49.26;99673.31;4964271;28;62104;-77
2022/03/31 01:32:56;;;;;;;;;55.00;38.25;;;;;14.84;49.54;99674.16;4962136;28;62073;-77
2022/03/31 01:35:21;;;;;;;;;37.00;32.75;;;;;14.83;48.60;99673.28;4979736;28;61927;-77
2022/03/31 01:37:47;;;;;;;;;53.75;36.75;;;;;14.80;49.10;99675.00;4964452;28;62115;-77
2022/03/31 01:40:13;;;;;;;;;43.25;38.50;;;;;14.76;49.70;99678.47;4963477;28;62176;-77
2022/03/31 01:42:42;;;;;;;;;56.00;40.75;;;;;14.63;49.52;99673.09;4963716;28;61948;-77
2022/03/31 01:45:11;;;;;;;;;51.50;41.50;;;;;14.62;49.94;99671.31;4963980;28;62277;-77
2022/03/31 01:47:37;;;;;;;;;51.50;38.25;;;;;14.56;49.86;99665.09;4964449;28;61985;-77
2022/03/31 01:50:04;;;;;;;;;56.00;39.50;;;;;14.53;49.96;99660.63;4963287;28;61872;-76
2022/03/31 01:52:30;;;;;;;;;55.75;42.75;;;;;14.57;49.99;99657.19;4964329;28;61955;-77
2022/03/31 01:54:55;;;;;;;;;54.50;40.50;;;;;14.55;50.07;99651.00;4963856;28;61882;-77
2022/03/31 01:57:21;;;;;;;;;56.25;43.00;;;;;14.51;50.12;99650.03;4946454;28;61897;-77
2022/03/31 01:59:47;;;;;;;;;51.25;39.75;;;;;14.41;50.22;99645.53;4963657;28;61869;-77
2022/03/31 02:02:13;;;;;;;;;57.25;43.75;;;;;14.39;50.55;99649.03;4963737;28;61967;-77
2022/03/31 02:04:47;;;;;;;;;53.75;41.25;;;;;14.39;49.80;99641.09;4964015;28;61886;-77
2022/03/31 02:07:13;;;;;;;;;49.50;38.50;;;;;14.27;50.94;99648.03;4964099;28;61750;-77
2022/03/31 02:09:38;;;;;;;;;51.25;36.75;;;;;14.24;50.52;99647.97;4963229;28;61786;-77
2022/03/31 02:12:05;;;;;;;;;48.50;38.75;;;;;14.22;50.75;99643.56;4963355;28;61943;-77
2022/03/31 02:14:30;;;;;;;;;58.75;43.00;;;;;14.20;50.85;99640.91;4946493;28;62232;-77
2022/03/31 02:16:56;;;;;;;;;55.25;40.00;;;;;14.20;50.81;99646.19;4964137;28;61781;-77
2022/03/31 02:19:22;;;;;;;;;44.25;36.00;;;;;14.17;50.75;99645.28;4962960;28;61820;-77
2022/03/31 02:21:47;;;;;;;;;58.50;41.25;;;;;14.13;50.92;99648.75;4963826;28;61870;-77
2022/03/31 02:24:14;;;;;;;;;61.25;42.25;;;;;14.11;50.41;99654.00;4945914;28;62358;-77
2022/03/31 02:26:41;;;;;;;;;53.50;42.00;;;;;14.01;51.16;99642.47;4963464;28;61853;-77
2022/03/31 02:29:06;;;;;;;;;58.25;41.25;;;;;13.96;51.10;99648.53;4963041;28;62632;-77
2022/03/31 02:31:32;;;;;;;;;55.00;42.25;;;;;13.90;51.07;99644.97;4963517;28;61710;-77
2022/03/31 02:33:58;;;;;;;;;58.25;43.75;;;;;13.89;51.50;99639.66;4963414;28;62137;-77
2022/03/31 02:36:26;;;;;;;;;65.00;43.75;;;;;13.93;51.35;99638.84;4962355;28;61892;-77
2022/03/31 02:38:52;;;;;;;;;44.75;40.50;;;;;13.91;50.71;99636.19;4962770;28;62701;-77
2022/03/31 02:41:19;;;;;;;;;49.50;42.50;;;;;13.88;50.90;99638.78;4970426;28;62235;-77
2022/03/31 02:43:47;;;;;;;;;62.25;42.75;;;;;13.91;50.80;99643.22;4962134;28;62167;-77
2022/03/31 02:46:13;;;;;;;;;67.00;47.50;;;;;13.87;51.16;99641.41;4962813;28;61714;-76
2022/03/31 02:48:39;;;;;;;;;51.50;42.50;;;;;13.87;51.29;99644.03;4962841;28;62922;-77
2022/03/31 02:51:05;;;;;;;;;52.50;43.00;;;;;13.84;51.21;99643.97;4963273;28;61890;-77
2022/03/31 02:56:14;;;;;;;;;52.75;43.25;;;;;13.84;51.07;99642.25;4963537;28;61841;-77
2022/03/31 02:58:40;;;;;;;;;50.00;41.75;;;;;13.83;51.29;99632.56;4962183;28;63012;-77
2022/03/31 03:01:06;;;;;;;;;53.25;40.00;;;;;13.80;51.63;99645.72;4963170;28;62203;-77
2022/03/31 03:03:32;;;;;;;;;48.75;38.25;;;;;13.82;51.39;99641.34;4962848;28;61923;-77
2022/03/31 03:05:58;;;;;;;;;59.75;47.00;;;;;13.79;51.43;99636.00;4963269;28;61945;-77
2022/03/31 03:08:26;;;;;;;;;62.25;43.50;;;;;13.74;50.72;99634.22;4960611;28;63734;-76
2022/03/31 03:10:55;;;;;;;;;48.75;42.25;;;;;13.70;51.76;99634.16;4961868;28;62010;-77
2022/03/31 03:13:20;;;;;;;;;67.00;43.50;;;;;13.70;51.27;99634.16;4962589;28;62137;-77
2022/03/31 03:15:48;;;;;;;;;60.50;44.75;;;;;13.66;51.31;99629.69;4963264;28;61850;-77
2022/03/31 03:18:14;;;;;;;;;57.25;43.50;;;;;13.70;51.15;99626.25;4977141;28;62692;-77
2022/03/31 03:20:39;;;;;;;;;58.50;44.00;;;;;13.66;51.41;99619.16;4962798;28;61913;-77
2022/03/31 03:23:05;;;;;;;;;50.25;42.25;;;;;13.65;51.21;99613.88;4961147;28;62432;-77
2022/03/31 03:25:30;;;;;;;;;59.00;41.75;;;;;13.59;51.21;99617.31;4961417;28;61863;-77
2022/03/31 03:27:58;;;;;;;;;55.25;40.25;;;;;13.59;51.52;99613.78;4961701;28;62118;-78
2022/03/31 03:30:23;;;;;;;;;55.00;41.00;;;;;13.53;51.64;99609.31;4961159;28;61905;-77
2022/03/31 03:32:48;;;;;;;;;59.25;41.25;;;;;13.48;51.47;99611.91;4962433;28;61872;-77
2022/03/31 03:35:14;;;;;;;;;53.75;42.75;;;;;13.42;51.46;99613.56;4962964;28;61990;-77
2022/03/31 03:37:41;;;;;;;;;55.50;40.25;;;;;13.32;51.55;99612.53;4961115;28;62230;-77
2022/03/31 03:40:09;;;;;;;;;64.25;42.75;;;;;13.31;51.56;99610.78;4966939;28;61985;-77
2022/03/31 03:42:38;;;;;;;;;55.50;42.75;;;;;13.28;51.93;99603.72;4963570;28;61876;-77
2022/03/31 03:45:04;;;;;;;;;57.75;43.25;;;;;13.25;51.14;99610.66;4962795;28;61842;-77
2022/03/31 03:47:30;;;;;;;;;55.25;43.25;;;;;13.18;51.66;99612.31;4961907;28;63086;-77
2022/03/31 03:49:56;;;;;;;;;60.50;43.25;;;;;13.10;51.85;99611.31;4977310;28;61757;-77
2022/03/31 03:52:21;;;;;;;;;58.25;43.25;;;;;13.14;51.81;99612.25;4962508;28;62114;-77
2022/03/31 03:54:47;;;;;;;;;66.25;45.50;;;;;13.06;51.88;99607.72;4962479;28;61786;-77
2022/03/31 03:57:12;;;;;;;;;49.25;40.50;;;;;13.11;51.56;99610.47;4962978;28;65025;-77
2022/03/31 03:59:38;;;;;;;;;60.50;45.50;;;;;13.03;52.00;99617.34;4965586;28;61948;-77
2022/03/31 04:02:04;;;;;;;;;57.00;43.50;;;;;13.01;51.91;99619.97;4965738;28;61965;-77
2022/03/31 04:04:30;;;;;;;;;57.50;44.00;;;;;13.00;51.71;99618.16;4966216;28;61876;-77
2022/03/31 04:06:56;;;;;;;;;57.75;44.00;;;;;12.96;51.70;99615.47;4964819;28;61768;-77
2022/03/31 04:09:22;;;;;;;;;63.75;44.00;;;;;12.93;51.98;99615.44;4965202;28;61848;-77
2022/03/31 04:11:48;;;;;;;;;61.00;44.50;;;;;12.88;51.88;99613.59;4965330;28;62095;-77
2022/03/31 04:14:14;;;;;;;;;63.50;44.25;;;;;12.84;51.68;99616.16;4966037;28;62213;-77
2022/03/31 04:16:39;;;;;;;;;60.00;44.75;;;;;12.79;51.90;99620.47;4965003;28;61907;-77
2022/03/31 04:19:07;;;;;;;;;57.50;42.75;;;;;12.73;52.17;99623.00;4965313;28;62160;-77
2022/03/31 04:21:34;;;;;;;;;59.25;43.75;;;;;12.70;51.96;99626.47;4965448;28;61706;-78
2022/03/31 04:23:59;;;;;;;;;62.50;45.75;;;;;12.71;52.11;99622.97;4964151;28;61915;-77
2022/03/31 04:26:25;;;;;;;;;60.75;46.00;;;;;12.72;51.81;99624.75;4965060;28;61989;-77
2022/03/31 04:28:50;;;;;;;;;64.00;48.25;;;;;12.66;52.13;99617.63;4964644;28;61974;-77
2022/03/31 04:31:15;;;;;;;;;61.75;44.25;;;;;12.65;51.88;99614.97;4965596;28;62088;-77
2022/03/31 04:33:41;;;;;;;;;53.25;43.00;;;;;12.65;51.68;99618.47;4965472;28;61957;-77
2022/03/31 04:36:06;;;;;;;;;68.25;48.50;;;;;12.64;51.78;99623.75;4964503;28;62147;-77
2022/03/31 04:38:32;;;;;;;;;58.00;44.00;;;;;12.62;52.05;99615.81;4964905;28;61584;-77
2022/03/31 04:40:57;;;;;;;;;60.75;46.25;;;;;12.66;51.92;99611.47;4972553;28;61861;-77
2022/03/31 04:43:23;;;;;;;;;62.00;46.00;;;;;12.69;51.51;99617.69;4964785;28;61941;-77
2022/03/31 04:45:48;;;;;;;;;58.00;43.25;;;;;12.68;51.66;99621.19;4964370;28;61844;-77
2022/03/31 04:48:14;;;;;;;;;62.00;44.67;;;;;12.63;51.76;99616.69;4965039;28;61734;-77
2022/03/31 04:50:39;;;;;;;;;61.00;48.50;;;;;12.54;51.98;99619.19;4964845;28;61635;-77
2022/03/31 04:53:06;;;;;;;;;68.00;51.67;;;;;12.44;52.45;99613.72;4963684;28;61787;-77
2022/03/31 04:55:32;;;;;;;;;67.50;49.50;;;;;12.42;52.52;99611.94;4964354;28;62698;-77
2022/03/31 04:57:58;;;;;;;;;68.00;49.25;;;;;12.36;52.76;99610.09;4964438;28;61901;-77
2022/03/31 05:00:23;;;;;;;;;71.50;53.50;;;;;12.36;52.32;99607.47;4979928;28;62026;-77
2022/03/31 05:02:49;;;;;;;;;66.25;49.50;;;;;12.36;52.70;99602.22;4964961;28;62040;-77
2022/03/31 05:05:15;;;;;;;;;63.00;47.67;;;;;12.40;52.25;99614.56;4964100;28;62443;-77
2022/03/31 05:07:41;;;;;;;;;64.00;48.67;;;;;12.38;52.69;99607.47;4963471;28;61933;-77
2022/03/31 05:10:07;;;;;;;;;68.67;51.00;;;;;12.36;52.82;99615.38;4979693;28;61987;-78
2022/03/31 05:12:32;;;;;;;;;65.75;50.25;;;;;12.32;52.61;99610.91;4947107;28;62044;-77
2022/03/31 05:14:57;;;;;;;;;72.25;52.50;;;;;12.32;52.45;99613.53;4966868;28;62744;-77
2022/03/31 05:17:23;;;;;;;;;60.67;49.67;;;;;12.38;52.41;99613.66;4964311;28;61892;-77
2022/03/31 05:19:48;;;;;;;;;69.67;49.67;;;;;12.45;52.46;99626.03;4962681;28;62058;-77
2022/03/31 05:22:14;;;;;;;;;74.33;55.67;;;;;12.49;52.70;99629.63;4963105;28;61998;-78
2022/03/31 05:24:39;;;;;;;;;66.00;53.67;;;;;12.39;52.23;99632.94;4963037;28;61856;-77
2022/03/31 05:27:05;;;;;;;;;65.00;51.67;;;;;12.36;52.63;99635.50;4963751;28;62057;-77
2022/03/31 05:29:30;;;;;;;;;70.00;52.00;;;;;12.34;52.74;99639.84;4964331;28;61909;-77
2022/03/31 05:31:57;;;;;;;;;72.00;51.00;;;;;12.32;52.50;99638.94;4964424;28;61879;-77
2022/03/31 05:34:23;;;;;;;;;72.67;56.00;;;;;12.20;52.85;99644.88;4963286;28;62456;-77
2022/03/31 05:36:49;;;;;;;;;74.00;55.00;;;;;12.16;53.12;99643.91;4966440;28;61749;-77
2022/03/31 05:39:14;;;;;;;;;77.67;55.67;;;;;12.13;53.39;99638.59;4964809;28;62191;-77
2022/03/31 05:41:39;;;;;;;;;68.67;56.00;;;;;12.15;53.42;99654.41;4961378;28;61831;-77
2022/03/31 05:44:05;;;;;;;;;77.33;55.00;;;;;12.17;52.90;99645.69;4963274;28;62599;-78
2022/03/31 05:46:30;;;;;;;;;72.33;56.33;;;;;12.18;53.09;99647.47;4964244;28;61766;-77
2022/03/31 05:48:56;;;;;;;;;85.67;57.00;;;;;12.18;53.23;99644.81;4963575;28;62940;-77
2022/03/31 05:51:22;;;;;;;;;70.33;51.33;;;;;12.21;52.88;99642.28;4963392;28;62006;-77
2022/03/31 05:53:47;;;;;;;;;77.67;57.00;;;;;12.22;53.05;99641.41;4965773;28;62660;-76
2022/03/31 05:56:13;;;;;;;;;79.67;59.00;;;;;12.29;52.86;99650.28;4963331;28;62041;-76
2022/03/31 05:58:39;;;;;;;;;75.67;54.67;;;;;12.34;53.28;99651.28;4963420;28;61933;-77
2022/03/31 06:01:05;;;;;;;;;79.67;53.33;;;;;12.40;53.11;99654.03;4962532;28;61722;-77
2022/03/31 06:03:31;;;;;;;;;74.33;57.33;;;;;12.48;52.81;99649.78;4960699;28;63585;-79
2022/03/31 06:06:07;;;;;;;;;74.67;56.67;;;;;12.54;52.65;99661.28;4963341;28;62051;-80
2022/03/31 06:08:35;;;;;;;;;69.00;54.00;;;;;12.66;52.60;99662.41;4960689;28;62307;-77
2022/03/31 06:11:02;;;;;;;;;73.67;54.33;;;;;12.75;52.32;99668.69;4962556;28;62065;-77
2022/03/31 06:13:27;;;;;;;;;78.33;56.33;;;;;12.70;52.84;99665.94;4961711;28;62510;-77
2022/03/31 06:15:54;;;;;;;;;80.67;60.00;;;;;12.71;52.83;99664.22;4963051;28;61817;-76
2022/03/31 06:18:21;;;;;;;;;72.67;54.67;;;;;12.75;52.86;99666.94;4960838;28;61838;-77
2022/03/31 06:20:47;;;;;;;;;69.67;55.00;;;;;12.88;52.47;99670.66;4962945;28;62121;-76
2022/03/31 06:23:12;;;;;;;;;77.33;58.67;;;;;13.02;52.46;99668.25;4962420;28;61942;-76
2022/03/31 06:25:38;;;;;;;;;75.67;55.00;;;;;13.04;52.13;99664.78;4962137;28;62015;-77
2022/03/31 06:28:03;;;;;;;;;78.33;54.67;;;;;13.16;51.92;99664.09;4960852;28;62382;-76
2022/03/31 06:30:29;;;;;;;;;80.00;56.33;;;;;13.29;51.67;99666.09;4963162;28;61959;-79
2022/03/31 06:32:54;;;;;;;;;80.33;54.67;;;;;13.39;51.39;99664.50;4945612;28;63579;-81
2022/03/31 06:35:20;;;;;;;;;78.67;55.00;;;;;13.45;51.06;99658.41;4963372;28;61804;-79
2022/03/31 06:37:46;;;;;;;;;81.33;57.00;;;;;13.49;51.24;99653.19;4962696;28;61895;-78
2022/03/31 06:40:15;;;;;;;;;85.33;55.67;;;;;13.58;51.33;99655.09;4967484;28;62221;-78
2022/03/31 06:42:42;;;;;;;;;79.00;54.67;;;;;13.68;51.10;99646.44;4981633;28;62162;-84
2022/03/31 06:45:09;;;;;;;;;65.50;50.50;;;;;13.79;51.06;99654.47;4964644;28;62047;-84
2022/03/31 06:47:35;;;;;;;;;76.75;53.00;;;;;13.95;50.70;99655.56;4981933;28;62058;-84
2022/03/31 06:50:01;;;;;;;;;68.00;48.50;;;;;14.06;50.11;99658.34;4982890;28;61763;-80
2022/03/31 06:52:26;;;;;;;;;67.25;53.00;;;;;14.15;49.75;99652.28;4978152;28;61898;-79
2022/03/31 06:54:52;;;;;;;;;71.50;52.75;;;;;14.21;49.81;99657.66;4981470;28;61924;-80
2022/03/31 06:57:17;;;;;;;;;75.00;52.25;;;;;14.29;49.50;99655.97;4981265;28;61912;-80
2022/03/31 06:59:43;;;;;;;;;73.50;53.75;;;;;14.35;49.49;99663.94;4982087;28;61771;-80
2022/03/31 07:02:08;;;;;;;;;66.50;51.50;;;;;14.42;49.38;99663.16;4963715;28;63726;-78
2022/03/31 07:04:34;;;;;;;;;68.00;49.00;;;;;14.49;49.18;99657.06;4961833;28;63425;-77
2022/03/31 07:06:59;;;;;;;;;70.25;49.00;;;;;14.59;49.13;99663.38;4962303;28;62451;-80
2022/03/31 07:09:25;;;;;;;;;67.25;49.00;;;;;14.65;48.85;99655.50;4975409;28;61841;-80
2022/03/31 07:11:50;;;;;;;;;72.50;54.25;;;;;14.65;48.56;99665.16;4976580;28;64805;-80
2022/03/31 07:14:16;;;;;;;;;70.75;52.25;;;;;14.45;48.77;99667.56;4961933;28;62003;-80
2022/03/31 07:16:41;;;;;;;;;75.00;50.50;;;;;14.30;49.25;99676.22;4962476;28;62426;-80
2022/03/31 07:19:07;;;;;;;;;52.00;41.00;;;;;14.15;49.15;99670.75;4977750;28;61931;-80
2022/03/31 07:21:32;;;;;;;;;73.50;51.75;;;;;14.08;49.81;99668.06;4976832;28;63578;-80
2022/03/31 07:24:00;;;;;;;;;73.25;52.00;;;;;13.99;49.84;99656.47;4962461;28;61924;-80
2022/03/31 07:26:25;;;;;;;;;73.50;53.25;;;;;14.00;50.20;99660.91;4977599;28;61971;-80
2022/03/31 07:28:51;;;;;;;;;66.50;52.00;;;;;13.98;49.89;99662.63;4961847;28;61951;-80
2022/03/31 07:31:17;;;;;;;;;77.67;58.67;;;;;13.93;50.79;99659.94;4965533;28;61876;-80
2022/03/31 07:33:42;;;;;;;;;78.33;57.00;;;;;13.79;50.87;99670.31;4983546;28;61879;-80
2022/03/31 07:36:09;;;;;;;;;63.67;42.33;;;;;13.73;51.21;99669.34;4983812;28;61805;-80
2022/03/31 07:38:34;;;;;;;;;79.00;57.33;;;;;13.75;51.05;99670.25;4983833;28;62145;-80
2022/03/31 07:41:00;;;;;;;;;84.00;60.00;;;;;13.78;51.11;99680.84;4967527;28;61793;-80
2022/03/31 07:43:27;;;;;;;;;78.00;58.00;;;;;13.65;51.76;99685.06;4950919;28;61695;-80
2022/03/31 07:45:53;;;;;;;;;73.75;55.00;;;;;13.57;51.90;99682.31;4950782;28;61900;-80
2022/03/31 07:48:18;;;;;;;;;63.75;44.50;;;;;13.50;52.68;99694.53;4968861;28;61915;-79
2022/03/31 07:50:44;;;;;;;;;75.00;54.50;;;;;13.41;53.13;99688.22;4967945;28;61808;-79
2022/03/31 07:53:10;;;;;;;;;69.25;50.00;;;;;13.46;53.19;99691.81;4968561;28;61875;-80
2022/03/31 07:55:36;;;;;;;;;78.00;57.50;;;;;13.43;54.13;99692.69;4968826;28;61905;-80
2022/03/31 07:58:03;;;;;;;;;78.33;59.67;;;;;13.35;53.90;99693.41;4967241;28;61729;-80
2022/03/31 08:00:28;;;;;;;;;83.33;58.00;;;;;13.31;54.13;99702.13;4967807;28;62985;-80
2022/03/31 08:02:55;;;;;;;;;69.75;52.25;;;;;13.31;54.38;99703.03;4968103;28;61864;-80
2022/03/31 08:05:23;;;;;;;;;68.75;44.25;;;;;13.34;54.16;99704.81;4967329;28;61941;-80
2022/03/31 08:07:49;;;;;;;;;26.25;20.75;;;;;13.27;52.71;99715.22;4968765;28;61872;-80
2022/03/31 08:10:16;;;;;;;;;20.00;16.50;;;;;13.24;52.48;99722.22;4967803;28;61962;-80
2022/03/31 08:12:42;;;;;;;;;15.25;14.00;;;;;13.12;52.36;99724.63;4950661;28;61965;-80
2022/03/31 08:15:09;;;;;;;;;18.50;14.25;;;;;12.97;52.26;99733.16;4968247;28;61988;-80
2022/03/31 08:17:34;;;;;;;;;11.50;10.75;;;;;12.76;51.63;99734.53;4968894;28;61740;-80
2022/03/31 08:20:00;;;;;;;;;14.75;13.25;;;;;12.72;51.92;99731.81;4967760;28;61646;-80
2022/03/31 08:22:26;;;;;;;;;15.00;13.25;;;;;12.67;51.47;99742.25;4968587;28;62186;-79
2022/03/31 08:24:53;;;;;;;;;10.50;10.25;;;;;12.65;51.27;99746.63;4968472;28;61860;-80
2022/03/31 08:27:19;;;;;;;;;7.00;7.00;;;;;12.45;50.38;99746.22;4968115;28;62041;-80
2022/03/31 08:29:45;;;;;;;;;10.25;8.50;;;;;12.35;50.48;99746.91;4967621;28;62944;-80
2022/03/31 08:32:11;;;;;;;;;5.25;5.25;;;;;12.39;50.55;99754.00;4950520;28;62068;-80
2022/03/31 08:34:37;;;;;;;;;7.00;7.00;;;;;12.36;50.54;99765.34;4983363;28;61960;-80
2022/03/31 08:37:03;;;;;;;;;11.25;6.00;;;;;12.34;50.70;99768.78;4968362;28;62115;-80
2022/03/31 08:39:28;;;;;;;;;8.25;7.25;;;;;12.19;50.30;99783.41;4967457;28;61820;-80
2022/03/31 08:41:54;;;;;;;;;10.00;9.25;;;;;12.13;50.91;99787.66;4965267;28;62017;-80
2022/03/31 08:44:21;;;;;;;;;5.50;4.00;;;;;12.12;50.86;99789.38;4964817;28;61763;-80
2022/03/31 08:46:48;;;;;;;;;6.00;6.00;;;;;12.04;50.22;99794.50;4965196;28;62157;-80
2022/03/31 08:49:13;;;;;;;;;8.00;6.50;;;;;12.00;50.89;99797.03;4964090;28;61897;-80
2022/03/31 08:51:39;;;;;;;;;7.00;4.00;;;;;12.01;50.41;99793.53;4964900;28;61709;-80
2022/03/31 08:54:05;;;;;;;;;6.25;6.00;;;;;12.01;50.65;99809.31;4964504;28;61893;-80
2022/03/31 08:56:31;;;;;;;;;5.75;5.75;;;;;11.80;51.47;99809.66;4963599;28;61788;-79
2022/03/31 08:58:56;;;;;;;;;6.00;6.00;;;;;11.75;51.88;99819.19;4963955;28;62716;-80
2022/03/31 09:01:22;;;;;;;;;7.00;7.00;;;;;11.75;53.03;99824.44;4964584;28;61736;-80
2022/03/31 09:03:48;;;;;;;;;7.00;5.00;;;;;11.75;51.38;99827.06;4964788;28;61929;-80
2022/03/31 09:06:25;;;;;;;;;8.00;6.00;;;;;11.77;51.70;99828.88;4964547;28;62140;-80
2022/03/31 09:09:02;;;;;;;;;7.00;6.00;;;;;11.73;51.47;99845.44;4946204;28;64091;-80
2022/03/31 09:11:29;;;;;;;;;6.50;6.50;;;;;11.57;51.82;99849.44;4964557;28;62064;-79
2022/03/31 09:14:00;;;;;;;;;5.00;5.00;;;;;11.59;52.79;99852.06;4963048;28;62143;-80
2022/03/31 09:16:37;;;;;;;;;6.25;5.00;;;;;11.68;52.55;99867.22;4964866;28;61766;-80
2022/03/31 09:19:15;;;;;;;;;5.50;3.00;;;;;11.58;52.58;99866.97;4964176;28;61957;-80
2022/03/31 09:21:52;;;;;;;;;3.25;3.25;;;;;11.56;51.70;99866.03;4964661;28;61773;-80
2022/03/31 09:24:19;;;;;;;;;4.50;4.50;;;;;11.57;51.56;99861.69;4963023;28;61846;-80
2022/03/31 09:26:48;;;;;;;;;4.75;2.50;;;;;11.56;52.28;99870.41;4963361;28;62118;-80
2022/03/31 09:29:15;;;;;;;;;3.75;3.75;;;;;11.57;51.52;99870.47;4963451;28;62267;-79
2022/03/31 09:31:41;;;;;;;;;7.00;5.75;;;;;11.69;53.42;99883.00;4964583;28;61993;-80
2022/03/31 09:34:08;;;;;;;;;5.50;3.00;;;;;11.75;51.46;99883.16;4964316;28;61925;-80
2022/03/31 09:36:36;;;;;;;;;8.25;7.00;;;;;11.68;51.21;99881.25;4964597;28;62063;-80
2022/03/31 09:39:13;;;;;;;;;5.00;5.00;;;;;11.82;51.29;99892.09;4962300;28;64863;-80
2022/03/31 09:41:40;;;;;;;;;5.00;5.00;;;;;11.84;50.89;99887.75;4963765;28;61768;-80
2022/03/31 09:44:19;;;;;;;;;6.25;6.00;;;;;11.83;51.26;99891.25;4946455;28;61792;-80
2022/03/31 09:46:46;;;;;;;;;6.25;5.25;;;;;11.89;52.04;99901.97;4964635;28;61975;-80
2022/03/31 09:49:16;;;;;;;;;6.00;4.50;;;;;11.78;49.71;99892.84;4962385;28;64820;-80
2022/03/31 09:51:43;;;;;;;;;8.00;5.50;;;;;11.85;51.34;99895.69;4946606;28;61872;-80
2022/03/31 09:54:10;;;;;;;;;6.00;6.00;;;;;11.94;51.43;99899.44;4963552;28;61683;-80
2022/03/31 09:56:39;;;;;;;;;6.25;5.00;;;;;11.97;50.79;99897.75;4964165;28;61815;-80
2022/03/31 09:59:05;;;;;;;;;6.00;5.25;;;;;11.90;50.44;99903.72;4961726;28;64927;-80
2022/03/31 10:01:31;;;;;;;;;3.50;3.50;;;;;12.04;50.67;99894.44;4978484;28;62211;-80
2022/03/31 10:03:57;;;;;;;;;6.00;6.00;;;;;12.16;51.02;99892.94;4961660;28;62035;-80
2022/03/31 10:06:27;;;;;;;;;6.25;5.25;;;;;12.36;50.76;99893.41;4963859;28;61849;-81
2022/03/31 10:08:53;;;;;;;;;4.00;4.00;;;;;12.49;49.80;99895.47;4961259;28;64574;-79
2022/03/31 10:11:20;;;;;;;;;5.00;5.00;;;;;12.56;49.92;99896.50;4978709;28;61809;-80
2022/03/31 10:13:56;;;;;;;;;6.25;5.25;;;;;12.71;50.23;99894.19;4978347;28;61829;-80
2022/03/31 10:16:50;;;;;;;;;4.00;4.00;;;;;12.86;48.89;99889.22;4964068;28;61865;-80
2022/03/31 10:19:30;;;;;;;;;3.50;2.50;;;;;12.87;48.58;99888.41;4963268;28;61946;-80
2022/03/31 10:21:58;;;;;;;;;3.75;3.00;;;;;12.94;49.16;99888.50;4963634;28;61994;-80
2022/03/31 10:27:14;;;;;;;;;4.25;2.75;;;;;13.11;48.64;99897.66;4963614;28;61925;-80
2022/03/31 10:29:42;;;;;;;;;6.75;3.00;;;;;13.35;48.67;99888.47;4945170;28;65212;-80
2022/03/31 10:32:23;;;;;;;;;3.00;3.00;;;;;13.52;47.87;99891.38;4963476;28;62051;-80
2022/03/31 10:34:50;;;;;;;;;4.00;3.00;;;;;13.50;47.31;99888.75;4945673;28;62009;-80
2022/03/31 10:37:18;;;;;;;;;3.50;3.50;;;;;13.56;48.13;99902.03;4963566;28;61828;-80
2022/03/31 10:39:52;;;;;;;;;2.00;2.00;;;;;13.75;47.36;99890.03;4944441;28;63755;-80
2022/03/31 10:42:18;;;;;;;;;2.75;2.75;;;;;13.93;48.27;99889.47;4963113;28;62151;-80
2022/03/31 10:44:44;;;;;;;;;2.00;2.00;;;;;14.05;46.73;99889.69;4961729;28;61772;-80
2022/03/31 10:47:09;;;;;;;;;2.00;2.00;;;;;14.14;46.75;99888.94;4963723;28;61785;-80
2022/03/31 10:49:36;;;;;;;;;4.25;3.25;;;;;14.23;46.77;99896.97;4962212;28;62114;-80
2022/03/31 10:52:19;;;;;;;;;4.00;3.00;;;;;14.33;45.20;99895.34;4963175;28;62036;-81
2022/03/31 10:54:45;;;;;;;;;5.75;3.00;;;;;14.49;45.89;99884.16;4962728;28;61911;-80
2022/03/31 10:57:13;;;;;;;;;4.75;4.75;;;;;14.60;45.60;99886.09;4963340;28;61864;-80
2022/03/31 10:59:39;;;;;;;;;5.00;3.00;;;;;14.44;44.41;99880.56;4961091;28;63575;-80
2022/03/31 11:02:11;;;;;;;;;14.50;13.00;;;;;14.45;44.61;99879.69;4962988;28;61718;-80
2022/03/31 11:04:54;;;;;;;;;7.25;3.25;;;;;14.49;44.97;99884.16;4962508;28;61963;-80
2022/03/31 11:07:25;;;;;;;;;17.75;13.25;;;;;14.55;46.08;99879.84;4961364;28;62232;-80
2022/03/31 11:10:06;;;;;;;;;6.25;4.00;;;;;14.56;44.96;99886.91;4960386;28;63772;-80
2022/03/31 11:12:33;;;;;;;;;4.00;3.75;;;;;14.34;43.70;99881.28;4961456;28;61898;-80
2022/03/31 11:15:08;;;;;;;;;8.75;8.75;;;;;14.27;45.38;99879.44;4961475;28;62011;-80
2022/03/31 11:17:35;;;;;;;;;6.25;5.25;;;;;14.21;45.13;99874.94;4963010;28;61732;-80
2022/03/31 11:20:06;;;;;;;;;1.25;0.00;;;;;13.99;44.46;99880.75;4960676;28;63809;-80
2022/03/31 11:22:31;;;;;;;;;5.00;3.75;;;;;14.20;45.01;99881.06;4962312;28;62220;-80
2022/03/31 11:25:18;;;;;;;;;4.50;4.50;;;;;14.46;44.14;99878.84;4961594;28;62065;-80
2022/03/31 11:27:46;;;;;;;;;6.00;4.00;;;;;14.53;44.37;99871.88;4962053;28;62127;-80